Tamuín, SLP, Mexico
Current Conditions -  °F | °C
As of 3:53 PM on Thursday 18 Dec 2014 (Local Time) from MMTM Reporting Station
Scattered Clouds Scattered Clouds  
Wind Chill: 77°   Ceiling: Unl
Heat Index: 79°   Visibility: 5mi
Dew Point: 68°   Wind: 12mph
Humidity: 74%   Direction: 140°SE
Pressure: 29.92"   Gusts: NA
Location:  22.00694°N, 98.78861°W
Report Text: MMTM 182153Z 14010KT 5SM SCT015 25/20 A2992 RMK 8/100 HZY
Loading
Personal Weather Stations






























Interactive Weather Map New forecast layout! Learn more

10-Day Weather Forecast

Advertisements
Track Severe Weather on mobile